sensor_id;sensor_type;location;lat;lon;timestamp;P1;durP1;ratioP1;P2;durP2;ratioP2
3081;SDS011;1551;51.046;7.010;2023-06-05T00:00:05;3.50;;;1.60;;
3081;SDS011;1551;51.046;7.010;2023-06-05T00:03:01;4.30;;;1.75;;
3081;SDS011;1551;51.046;7.010;2023-06-05T00:05:50;4.40;;;1.70;;
3081;SDS011;1551;51.046;7.010;2023-06-05T00:08:39;3.60;;;1.52;;
3081;SDS011;1551;51.046;7.010;2023-06-05T00:11:28;3.45;;;1.95;;
3081;SDS011;1551;51.046;7.010;2023-06-05T00:14:17;3.30;;;1.60;;
3081;SDS011;1551;51.046;7.010;2023-06-05T00:17:06;3.53;;;1.65;;
3081;SDS011;1551;51.046;7.010;2023-06-05T00:19:56;3.30;;;1.70;;
3081;SDS011;1551;51.046;7.010;2023-06-05T00:22:47;3.30;;;1.60;;
3081;SDS011;1551;51.046;7.010;2023-06-05T00:25:37;4.10;;;1.60;;
3081;SDS011;1551;51.046;7.010;2023-06-05T00:28:26;3.55;;;1.90;;
3081;SDS011;1551;51.046;7.010;2023-06-05T00:31:15;4.00;;;1.53;;
3081;SDS011;1551;51.046;7.010;2023-06-05T00:34:07;3.00;;;1.65;;
3081;SDS011;1551;51.046;7.010;2023-06-05T00:36:56;3.00;;;1.70;;
3081;SDS011;1551;51.046;7.010;2023-06-05T00:39:48;3.00;;;1.70;;
3081;SDS011;1551;51.046;7.010;2023-06-05T00:42:37;3.15;;;1.85;;
3081;SDS011;1551;51.046;7.010;2023-06-05T00:45:26;3.40;;;1.63;;
3081;SDS011;1551;51.046;7.010;2023-06-05T00:48:15;3.07;;;1.90;;
3081;SDS011;1551;51.046;7.010;2023-06-05T00:51:04;3.05;;;1.80;;
3081;SDS011;1551;51.046;7.010;2023-06-05T00:53:53;3.30;;;1.83;;
3081;SDS011;1551;51.046;7.010;2023-06-05T00:56:43;2.88;;;1.60;;
3081;SDS011;1551;51.046;7.010;2023-06-05T00:59:33;3.40;;;2.30;;
3081;SDS011;1551;51.046;7.010;2023-06-05T01:02:23;3.75;;;2.10;;
3081;SDS011;1551;51.046;7.010;2023-06-05T01:05:13;3.20;;;1.80;;
3081;SDS011;1551;51.046;7.010;2023-06-05T01:08:03;3.30;;;1.60;;
3081;SDS011;1551;51.046;7.010;2023-06-05T01:10:53;2.80;;;1.60;;
3081;SDS011;1551;51.046;7.010;2023-06-05T01:13:50;2.83;;;1.60;;
3081;SDS011;1551;51.046;7.010;2023-06-05T01:16:47;4.50;;;2.10;;
3081;SDS011;1551;51.046;7.010;2023-06-05T01:19:38;3.00;;;1.60;;
3081;SDS011;1551;51.046;7.010;2023-06-05T01:22:27;4.28;;;2.28;;
3081;SDS011;1551;51.046;7.010;2023-06-05T01:25:17;4.50;;;1.80;;
3081;SDS011;1551;51.046;7.010;2023-06-05T01:28:17;3.60;;;1.55;;
3081;SDS011;1551;51.046;7.010;2023-06-05T01:31:11;3.90;;;1.70;;
3081;SDS011;1551;51.046;7.010;2023-06-05T01:34:05;3.17;;;1.80;;
3081;SDS011;1551;51.046;7.010;2023-06-05T01:37:01;4.88;;;1.88;;
3081;SDS011;1551;51.046;7.010;2023-06-05T01:39:51;3.00;;;1.70;;
3081;SDS011;1551;51.046;7.010;2023-06-05T01:42:43;3.40;;;1.60;;
3081;SDS011;1551;51.046;7.010;2023-06-05T01:45:33;2.40;;;1.42;;
3081;SDS011;1551;51.046;7.010;2023-06-05T01:48:27;3.50;;;1.60;;
3081;SDS011;1551;51.046;7.010;2023-06-05T01:51:17;2.80;;;1.80;;
3081;SDS011;1551;51.046;7.010;2023-06-05T01:54:06;2.70;;;1.50;;
3081;SDS011;1551;51.046;7.010;2023-06-05T01:56:56;3.47;;;1.50;;
3081;SDS011;1551;51.046;7.010;2023-06-05T01:59:45;3.50;;;1.80;;
3081;SDS011;1551;51.046;7.010;2023-06-05T02:02:35;3.33;;;1.70;;
3081;SDS011;1551;51.046;7.010;2023-06-05T02:05:24;3.30;;;1.73;;
3081;SDS011;1551;51.046;7.010;2023-06-05T02:08:18;4.43;;;1.85;;
3081;SDS011;1551;51.046;7.010;2023-06-05T02:11:08;3.38;;;1.80;;
3081;SDS011;1551;51.046;7.010;2023-06-05T02:13:59;4.40;;;1.63;;
3081;SDS011;1551;51.046;7.010;2023-06-05T02:16:48;4.32;;;1.90;;
3081;SDS011;1551;51.046;7.010;2023-06-05T02:19:37;3.58;;;1.70;;
3081;SDS011;1551;51.046;7.010;2023-06-05T02:22:26;4.38;;;2.00;;
3081;SDS011;1551;51.046;7.010;2023-06-05T02:25:15;3.17;;;1.90;;
3081;SDS011;1551;51.046;7.010;2023-06-05T02:28:05;3.80;;;2.28;;
3081;SDS011;1551;51.046;7.010;2023-06-05T02:30:54;3.50;;;2.20;;
3081;SDS011;1551;51.046;7.010;2023-06-05T02:33:43;3.72;;;2.00;;
3081;SDS011;1551;51.046;7.010;2023-06-05T02:36:32;4.10;;;2.10;;
3081;SDS011;1551;51.046;7.010;2023-06-05T02:39:22;3.20;;;1.55;;
3081;SDS011;1551;51.046;7.010;2023-06-05T02:42:11;3.60;;;2.10;;
3081;SDS011;1551;51.046;7.010;2023-06-05T02:45:01;3.60;;;2.05;;
3081;SDS011;1551;51.046;7.010;2023-06-05T02:47:51;3.72;;;1.90;;
3081;SDS011;1551;51.046;7.010;2023-06-05T02:50:41;4.70;;;2.17;;
3081;SDS011;1551;51.046;7.010;2023-06-05T02:53:32;2.60;;;1.85;;
3081;SDS011;1551;51.046;7.010;2023-06-05T02:56:22;3.83;;;2.20;;
3081;SDS011;1551;51.046;7.010;2023-06-05T02:59:17;3.97;;;2.42;;
3081;SDS011;1551;51.046;7.010;2023-06-05T03:02:07;3.20;;;2.10;;
3081;SDS011;1551;51.046;7.010;2023-06-05T03:04:58;4.35;;;2.17;;
3081;SDS011;1551;51.046;7.010;2023-06-05T03:07:48;5.85;;;2.30;;
3081;SDS011;1551;51.046;7.010;2023-06-05T03:10:37;7.18;;;2.70;;
3081;SDS011;1551;51.046;7.010;2023-06-05T03:13:28;4.80;;;2.37;;
3081;SDS011;1551;51.046;7.010;2023-06-05T03:16:17;6.00;;;2.72;;
3081;SDS011;1551;51.046;7.010;2023-06-05T03:19:11;3.72;;;2.10;;
3081;SDS011;1551;51.046;7.010;2023-06-05T03:22:06;5.80;;;2.60;;
3081;SDS011;1551;51.046;7.010;2023-06-05T03:24:58;4.00;;;2.30;;
3081;SDS011;1551;51.046;7.010;2023-06-05T03:27:49;3.40;;;2.20;;
3081;SDS011;1551;51.046;7.010;2023-06-05T03:30:38;3.70;;;2.30;;
3081;SDS011;1551;51.046;7.010;2023-06-05T03:33:29;3.60;;;2.35;;
3081;SDS011;1551;51.046;7.010;2023-06-05T03:36:18;4.90;;;2.60;;
3081;SDS011;1551;51.046;7.010;2023-06-05T03:39:11;4.27;;;2.50;;
3081;SDS011;1551;51.046;7.010;2023-06-05T03:42:02;4.25;;;2.70;;
3081;SDS011;1551;51.046;7.010;2023-06-05T03:44:53;3.47;;;2.20;;
3081;SDS011;1551;51.046;7.010;2023-06-05T03:47:42;6.17;;;2.40;;
3081;SDS011;1551;51.046;7.010;2023-06-05T03:50:33;4.35;;;2.40;;
3081;SDS011;1551;51.046;7.010;2023-06-05T03:53:26;3.60;;;2.47;;
3081;SDS011;1551;51.046;7.010;2023-06-05T03:56:18;4.20;;;2.78;;
3081;SDS011;1551;51.046;7.010;2023-06-05T03:59:08;4.65;;;2.60;;
3081;SDS011;1551;51.046;7.010;2023-06-05T04:02:00;5.10;;;2.60;;
3081;SDS011;1551;51.046;7.010;2023-06-05T04:04:51;3.80;;;2.40;;
3081;SDS011;1551;51.046;7.010;2023-06-05T04:07:41;6.30;;;2.50;;
3081;SDS011;1551;51.046;7.010;2023-06-05T04:10:30;5.90;;;2.50;;
3081;SDS011;1551;51.046;7.010;2023-06-05T04:13:20;4.10;;;2.70;;
3081;SDS011;1551;51.046;7.010;2023-06-05T04:16:10;4.43;;;2.78;;
3081;SDS011;1551;51.046;7.010;2023-06-05T04:19:00;5.28;;;2.50;;
3081;SDS011;1551;51.046;7.010;2023-06-05T04:21:51;3.40;;;2.42;;
3081;SDS011;1551;51.046;7.010;2023-06-05T04:24:40;4.82;;;2.90;;
3081;SDS011;1551;51.046;7.010;2023-06-05T04:27:31;4.68;;;2.47;;
3081;SDS011;1551;51.046;7.010;2023-06-05T04:30:20;5.47;;;2.80;;
3081;SDS011;1551;51.046;7.010;2023-06-05T04:33:09;6.05;;;2.95;;
3081;SDS011;1551;51.046;7.010;2023-06-05T04:36:00;4.78;;;2.70;;
3081;SDS011;1551;51.046;7.010;2023-06-05T04:38:49;5.97;;;3.05;;
3081;SDS011;1551;51.046;7.010;2023-06-05T04:41:38;4.87;;;2.90;;
3081;SDS011;1551;51.046;7.010;2023-06-05T04:44:34;5.32;;;2.78;;
3081;SDS011;1551;51.046;7.010;2023-06-05T04:47:23;5.72;;;2.95;;
3081;SDS011;1551;51.046;7.010;2023-06-05T04:50:24;5.28;;;2.80;;
3081;SDS011;1551;51.046;7.010;2023-06-05T04:53:16;5.38;;;2.70;;
3081;SDS011;1551;51.046;7.010;2023-06-05T04:56:07;5.25;;;2.67;;
3081;SDS011;1551;51.046;7.010;2023-06-05T04:58:57;4.88;;;2.80;;
3081;SDS011;1551;51.046;7.010;2023-06-05T05:01:48;4.67;;;2.73;;
3081;SDS011;1551;51.046;7.010;2023-06-05T05:04:39;5.00;;;2.70;;
3081;SDS011;1551;51.046;7.010;2023-06-05T05:07:28;3.40;;;2.55;;
3081;SDS011;1551;51.046;7.010;2023-06-05T05:10:18;6.00;;;3.10;;
3081;SDS011;1551;51.046;7.010;2023-06-05T05:13:08;6.80;;;3.20;;
3081;SDS011;1551;51.046;7.010;2023-06-05T05:15:57;5.30;;;2.55;;
3081;SDS011;1551;51.046;7.010;2023-06-05T05:18:47;6.32;;;3.13;;
3081;SDS011;1551;51.046;7.010;2023-06-05T05:21:36;5.93;;;2.50;;
3081;SDS011;1551;51.046;7.010;2023-06-05T05:24:26;6.22;;;2.85;;
3081;SDS011;1551;51.046;7.010;2023-06-05T05:27:15;7.35;;;3.33;;
3081;SDS011;1551;51.046;7.010;2023-06-05T05:30:04;5.28;;;2.88;;
3081;SDS011;1551;51.046;7.010;2023-06-05T05:32:53;6.15;;;3.00;;
3081;SDS011;1551;51.046;7.010;2023-06-05T05:35:44;6.07;;;3.10;;
3081;SDS011;1551;51.046;7.010;2023-06-05T05:38:34;6.25;;;3.75;;
3081;SDS011;1551;51.046;7.010;2023-06-05T05:41:23;5.27;;;3.23;;
3081;SDS011;1551;51.046;7.010;2023-06-05T05:44:12;5.05;;;3.13;;
3081;SDS011;1551;51.046;7.010;2023-06-05T05:47:01;5.07;;;3.20;;
3081;SDS011;1551;51.046;7.010;2023-06-05T05:49:50;5.77;;;3.13;;
3081;SDS011;1551;51.046;7.010;2023-06-05T05:52:39;4.50;;;2.90;;
3081;SDS011;1551;51.046;7.010;2023-06-05T05:55:28;8.20;;;3.58;;
3081;SDS011;1551;51.046;7.010;2023-06-05T05:58:17;7.60;;;3.05;;
3081;SDS011;1551;51.046;7.010;2023-06-05T06:04:41;6.53;;;3.00;;
3081;SDS011;1551;51.046;7.010;2023-06-05T06:07:32;4.25;;;2.90;;
3081;SDS011;1551;51.046;7.010;2023-06-05T06:10:22;6.22;;;3.05;;
3081;SDS011;1551;51.046;7.010;2023-06-05T06:13:11;5.70;;;3.00;;
3081;SDS011;1551;51.046;7.010;2023-06-05T06:16:01;6.18;;;3.30;;
3081;SDS011;1551;51.046;7.010;2023-06-05T06:18:50;5.07;;;2.80;;
3081;SDS011;1551;51.046;7.010;2023-06-05T06:21:40;5.13;;;3.03;;
3081;SDS011;1551;51.046;7.010;2023-06-05T06:24:29;6.20;;;2.83;;
3081;SDS011;1551;51.046;7.010;2023-06-05T06:27:18;4.72;;;2.75;;
3081;SDS011;1551;51.046;7.010;2023-06-05T06:30:08;4.95;;;2.88;;
3081;SDS011;1551;51.046;7.010;2023-06-05T06:32:58;5.13;;;2.90;;
3081;SDS011;1551;51.046;7.010;2023-06-05T06:35:47;7.10;;;3.60;;
3081;SDS011;1551;51.046;7.010;2023-06-05T06:38:36;5.35;;;3.28;;
3081;SDS011;1551;51.046;7.010;2023-06-05T06:41:25;5.93;;;2.83;;
3081;SDS011;1551;51.046;7.010;2023-06-05T06:44:15;4.80;;;3.10;;
3081;SDS011;1551;51.046;7.010;2023-06-05T06:47:04;5.13;;;3.00;;
3081;SDS011;1551;51.046;7.010;2023-06-05T06:49:53;5.35;;;2.60;;
3081;SDS011;1551;51.046;7.010;2023-06-05T06:52:42;5.65;;;3.03;;
3081;SDS011;1551;51.046;7.010;2023-06-05T06:55:31;4.68;;;2.33;;
3081;SDS011;1551;51.046;7.010;2023-06-05T06:58:21;5.25;;;2.63;;
3081;SDS011;1551;51.046;7.010;2023-06-05T07:01:10;4.00;;;2.20;;
3081;SDS011;1551;51.046;7.010;2023-06-05T07:04:00;4.90;;;2.78;;
3081;SDS011;1551;51.046;7.010;2023-06-05T07:06:49;4.70;;;2.70;;
3081;SDS011;1551;51.046;7.010;2023-06-05T07:09:38;4.95;;;2.60;;
3081;SDS011;1551;51.046;7.010;2023-06-05T07:12:28;6.22;;;3.03;;
3081;SDS011;1551;51.046;7.010;2023-06-05T07:15:17;4.95;;;2.65;;
3081;SDS011;1551;51.046;7.010;2023-06-05T07:18:06;6.45;;;2.90;;
3081;SDS011;1551;51.046;7.010;2023-06-05T07:20:55;5.03;;;2.65;;
3081;SDS011;1551;51.046;7.010;2023-06-05T07:23:46;4.90;;;2.60;;
3081;SDS011;1551;51.046;7.010;2023-06-05T07:26:39;4.32;;;2.40;;
3081;SDS011;1551;51.046;7.010;2023-06-05T07:29:29;4.50;;;2.40;;
3081;SDS011;1551;51.046;7.010;2023-06-05T07:32:18;3.90;;;2.30;;
3081;SDS011;1551;51.046;7.010;2023-06-05T07:35:08;4.82;;;2.88;;
3081;SDS011;1551;51.046;7.010;2023-06-05T07:37:57;6.25;;;2.30;;
3081;SDS011;1551;51.046;7.010;2023-06-05T07:40:46;5.90;;;2.38;;
3081;SDS011;1551;51.046;7.010;2023-06-05T07:43:36;4.20;;;2.20;;
3081;SDS011;1551;51.046;7.010;2023-06-05T07:46:28;4.65;;;2.00;;
3081;SDS011;1551;51.046;7.010;2023-06-05T07:49:17;4.72;;;2.30;;
3081;SDS011;1551;51.046;7.010;2023-06-05T07:52:06;4.63;;;2.42;;
3081;SDS011;1551;51.046;7.010;2023-06-05T07:54:55;6.68;;;3.10;;
3081;SDS011;1551;51.046;7.010;2023-06-05T07:57:45;4.70;;;2.70;;
3081;SDS011;1551;51.046;7.010;2023-06-05T08:00:34;4.85;;;2.30;;
3081;SDS011;1551;51.046;7.010;2023-06-05T08:03:23;4.68;;;2.65;;
3081;SDS011;1551;51.046;7.010;2023-06-05T08:06:12;4.35;;;2.22;;
3081;SDS011;1551;51.046;7.010;2023-06-05T08:09:00;4.50;;;2.40;;
3081;SDS011;1551;51.046;7.010;2023-06-05T08:11:50;4.30;;;2.55;;
3081;SDS011;1551;51.046;7.010;2023-06-05T08:14:39;4.93;;;2.30;;
3081;SDS011;1551;51.046;7.010;2023-06-05T08:17:28;3.90;;;2.30;;
3081;SDS011;1551;51.046;7.010;2023-06-05T08:20:17;7.47;;;2.10;;
3081;SDS011;1551;51.046;7.010;2023-06-05T08:23:06;4.10;;;2.33;;
3081;SDS011;1551;51.046;7.010;2023-06-05T08:25:55;4.57;;;2.15;;
3081;SDS011;1551;51.046;7.010;2023-06-05T08:28:44;3.60;;;2.30;;
3081;SDS011;1551;51.046;7.010;2023-06-05T08:31:33;4.22;;;2.40;;
3081;SDS011;1551;51.046;7.010;2023-06-05T08:34:25;4.20;;;2.30;;
3081;SDS011;1551;51.046;7.010;2023-06-05T08:37:14;4.68;;;2.30;;
3081;SDS011;1551;51.046;7.010;2023-06-05T08:40:04;4.70;;;2.20;;
3081;SDS011;1551;51.046;7.010;2023-06-05T08:43:00;5.35;;;2.38;;
3081;SDS011;1551;51.046;7.010;2023-06-05T08:45:50;4.90;;;2.22;;
3081;SDS011;1551;51.046;7.010;2023-06-05T08:48:42;5.82;;;2.10;;
3081;SDS011;1551;51.046;7.010;2023-06-05T08:51:32;5.30;;;2.50;;
3081;SDS011;1551;51.046;7.010;2023-06-05T08:54:21;5.97;;;2.40;;
3081;SDS011;1551;51.046;7.010;2023-06-05T08:57:10;4.50;;;2.40;;
3081;SDS011;1551;51.046;7.010;2023-06-05T08:59:59;3.90;;;1.80;;
3081;SDS011;1551;51.046;7.010;2023-06-05T09:02:56;7.55;;;2.25;;
3081;SDS011;1551;51.046;7.010;2023-06-05T09:05:46;3.75;;;2.10;;
3081;SDS011;1551;51.046;7.010;2023-06-05T09:08:37;5.78;;;2.30;;
3081;SDS011;1551;51.046;7.010;2023-06-05T09:11:30;4.43;;;2.00;;
3081;SDS011;1551;51.046;7.010;2023-06-05T09:14:25;4.07;;;2.20;;
3081;SDS011;1551;51.046;7.010;2023-06-05T09:17:14;4.50;;;2.20;;
3081;SDS011;1551;51.046;7.010;2023-06-05T09:20:03;5.10;;;2.03;;
3081;SDS011;1551;51.046;7.010;2023-06-05T09:22:58;4.57;;;2.20;;
3081;SDS011;1551;51.046;7.010;2023-06-05T09:25:47;4.50;;;2.20;;
3081;SDS011;1551;51.046;7.010;2023-06-05T09:28:37;5.05;;;2.10;;
3081;SDS011;1551;51.046;7.010;2023-06-05T09:31:41;3.90;;;2.17;;
3081;SDS011;1551;51.046;7.010;2023-06-05T09:37:36;3.40;;;2.10;;
3081;SDS011;1551;51.046;7.010;2023-06-05T09:40:38;2.80;;;1.90;;
3081;SDS011;1551;51.046;7.010;2023-06-05T09:43:27;3.63;;;2.20;;
3081;SDS011;1551;51.046;7.010;2023-06-05T09:46:16;3.22;;;2.00;;
3081;SDS011;1551;51.046;7.010;2023-06-05T09:49:05;3.50;;;2.30;;
3081;SDS011;1551;51.046;7.010;2023-06-05T09:51:58;3.00;;;2.10;;
3081;SDS011;1551;51.046;7.010;2023-06-05T09:54:48;3.17;;;1.90;;
3081;SDS011;1551;51.046;7.010;2023-06-05T09:57:39;3.10;;;1.80;;
3081;SDS011;1551;51.046;7.010;2023-06-05T10:00:28;3.00;;;1.88;;
3081;SDS011;1551;51.046;7.010;2023-06-05T10:03:18;3.28;;;2.17;;
3081;SDS011;1551;51.046;7.010;2023-06-05T10:06:09;4.00;;;2.00;;
3081;SDS011;1551;51.046;7.010;2023-06-05T10:08:59;2.70;;;1.90;;
3081;SDS011;1551;51.046;7.010;2023-06-05T10:11:49;3.05;;;1.85;;
3081;SDS011;1551;51.046;7.010;2023-06-05T10:14:40;2.90;;;1.90;;
3081;SDS011;1551;51.046;7.010;2023-06-05T10:17:31;4.50;;;1.95;;
3081;SDS011;1551;51.046;7.010;2023-06-05T10:20:21;2.90;;;1.90;;
3081;SDS011;1551;51.046;7.010;2023-06-05T10:23:11;2.80;;;1.90;;
3081;SDS011;1551;51.046;7.010;2023-06-05T10:26:04;2.92;;;1.80;;
3081;SDS011;1551;51.046;7.010;2023-06-05T10:32:00;3.28;;;2.00;;
3081;SDS011;1551;51.046;7.010;2023-06-05T10:35:02;3.53;;;2.05;;
3081;SDS011;1551;51.046;7.010;2023-06-05T10:38:02;3.00;;;1.90;;
3081;SDS011;1551;51.046;7.010;2023-06-05T10:41:00;2.83;;;1.80;;
3081;SDS011;1551;51.046;7.010;2023-06-05T10:43:54;3.40;;;2.08;;
3081;SDS011;1551;51.046;7.010;2023-06-05T10:46:44;2.83;;;1.63;;
3081;SDS011;1551;51.046;7.010;2023-06-05T10:49:33;3.40;;;2.30;;
3081;SDS011;1551;51.046;7.010;2023-06-05T10:52:37;4.72;;;2.40;;
3081;SDS011;1551;51.046;7.010;2023-06-05T10:55:26;3.38;;;1.75;;
3081;SDS011;1551;51.046;7.010;2023-06-05T10:58:29;3.70;;;1.92;;
3081;SDS011;1551;51.046;7.010;2023-06-05T11:01:19;4.00;;;2.00;;
3081;SDS011;1551;51.046;7.010;2023-06-05T11:04:09;2.90;;;1.70;;
3081;SDS011;1551;51.046;7.010;2023-06-05T11:07:41;3.05;;;1.95;;
3081;SDS011;1551;51.046;7.010;2023-06-05T11:10:13;3.15;;;1.65;;
3081;SDS011;1551;51.046;7.010;2023-06-05T11:13:09;2.50;;;1.80;;
3081;SDS011;1551;51.046;7.010;2023-06-05T11:15:58;4.70;;;2.00;;
3081;SDS011;1551;51.046;7.010;2023-06-05T11:18:47;2.90;;;1.80;;
3081;SDS011;1551;51.046;7.010;2023-06-05T11:25:23;3.00;;;1.90;;
3081;SDS011;1551;51.046;7.010;2023-06-05T11:28:06;3.38;;;1.90;;
3081;SDS011;1551;51.046;7.010;2023-06-05T11:30:59;4.00;;;1.73;;
3081;SDS011;1551;51.046;7.010;2023-06-05T11:33:49;2.97;;;1.98;;
3081;SDS011;1551;51.046;7.010;2023-06-05T11:36:38;3.05;;;2.00;;
3081;SDS011;1551;51.046;7.010;2023-06-05T11:39:41;3.60;;;1.60;;
3081;SDS011;1551;51.046;7.010;2023-06-05T11:42:31;4.20;;;1.70;;
3081;SDS011;1551;51.046;7.010;2023-06-05T11:45:20;3.40;;;1.90;;
3081;SDS011;1551;51.046;7.010;2023-06-05T11:48:10;3.05;;;1.90;;
3081;SDS011;1551;51.046;7.010;2023-06-05T11:51:01;2.75;;;1.90;;
3081;SDS011;1551;51.046;7.010;2023-06-05T11:53:51;3.75;;;1.67;;
3081;SDS011;1551;51.046;7.010;2023-06-05T11:56:41;2.50;;;1.70;;
3081;SDS011;1551;51.046;7.010;2023-06-05T11:59:37;2.75;;;1.63;;
3081;SDS011;1551;51.046;7.010;2023-06-05T12:02:26;3.42;;;1.70;;
3081;SDS011;1551;51.046;7.010;2023-06-05T12:05:15;4.10;;;1.95;;
3081;SDS011;1551;51.046;7.010;2023-06-05T12:11:20;3.40;;;1.80;;
3081;SDS011;1551;51.046;7.010;2023-06-05T12:14:30;3.63;;;1.90;;
3081;SDS011;1551;51.046;7.010;2023-06-05T12:17:21;3.20;;;2.20;;
3081;SDS011;1551;51.046;7.010;2023-06-05T12:20:11;5.47;;;2.20;;
3081;SDS011;1551;51.046;7.010;2023-06-05T12:23:00;2.70;;;1.90;;
3081;SDS011;1551;51.046;7.010;2023-06-05T12:25:57;3.28;;;2.00;;
3081;SDS011;1551;51.046;7.010;2023-06-05T12:28:47;4.70;;;2.20;;
3081;SDS011;1551;51.046;7.010;2023-06-05T12:31:36;6.03;;;2.50;;
3081;SDS011;1551;51.046;7.010;2023-06-05T12:34:37;3.08;;;2.00;;
3081;SDS011;1551;51.046;7.010;2023-06-05T12:37:35;4.87;;;2.30;;
3081;SDS011;1551;51.046;7.010;2023-06-05T12:40:27;3.10;;;1.90;;
3081;SDS011;1551;51.046;7.010;2023-06-05T12:43:16;4.20;;;2.20;;
3081;SDS011;1551;51.046;7.010;2023-06-05T12:46:08;4.82;;;2.55;;
3081;SDS011;1551;51.046;7.010;2023-06-05T12:48:57;4.50;;;2.30;;
3081;SDS011;1551;51.046;7.010;2023-06-05T12:51:49;4.18;;;2.50;;
3081;SDS011;1551;51.046;7.010;2023-06-05T12:54:38;5.53;;;1.98;;
3081;SDS011;1551;51.046;7.010;2023-06-05T12:57:27;4.50;;;2.20;;
3081;SDS011;1551;51.046;7.010;2023-06-05T13:00:16;3.08;;;2.10;;
3081;SDS011;1551;51.046;7.010;2023-06-05T13:03:07;3.47;;;1.95;;
3081;SDS011;1551;51.046;7.010;2023-06-05T13:05:57;4.25;;;2.30;;
3081;SDS011;1551;51.046;7.010;2023-06-05T13:08:46;4.30;;;2.33;;
3081;SDS011;1551;51.046;7.010;2023-06-05T13:11:35;4.30;;;2.00;;
3081;SDS011;1551;51.046;7.010;2023-06-05T13:14:24;3.72;;;2.20;;
3081;SDS011;1551;51.046;7.010;2023-06-05T13:17:13;5.37;;;2.33;;
3081;SDS011;1551;51.046;7.010;2023-06-05T13:20:02;3.10;;;2.00;;
3081;SDS011;1551;51.046;7.010;2023-06-05T13:22:55;3.80;;;2.50;;
3081;SDS011;1551;51.046;7.010;2023-06-05T13:25:44;7.22;;;2.13;;
3081;SDS011;1551;51.046;7.010;2023-06-05T13:28:33;3.60;;;1.90;;
3081;SDS011;1551;51.046;7.010;2023-06-05T13:31:23;4.40;;;2.20;;
3081;SDS011;1551;51.046;7.010;2023-06-05T13:34:13;4.40;;;1.80;;
3081;SDS011;1551;51.046;7.010;2023-06-05T13:37:02;3.20;;;1.80;;
3081;SDS011;1551;51.046;7.010;2023-06-05T13:39:51;5.20;;;2.10;;
3081;SDS011;1551;51.046;7.010;2023-06-05T13:42:40;3.10;;;2.40;;
3081;SDS011;1551;51.046;7.010;2023-06-05T13:45:29;2.63;;;1.80;;
3081;SDS011;1551;51.046;7.010;2023-06-05T13:48:18;3.38;;;2.28;;
3081;SDS011;1551;51.046;7.010;2023-06-05T13:51:08;3.33;;;2.00;;
3081;SDS011;1551;51.046;7.010;2023-06-05T13:53:57;4.30;;;2.10;;
3081;SDS011;1551;51.046;7.010;2023-06-05T13:56:46;3.40;;;2.13;;
3081;SDS011;1551;51.046;7.010;2023-06-05T13:59:35;3.50;;;1.70;;
3081;SDS011;1551;51.046;7.010;2023-06-05T14:02:24;3.08;;;2.10;;
3081;SDS011;1551;51.046;7.010;2023-06-05T14:05:13;3.55;;;1.98;;
3081;SDS011;1551;51.046;7.010;2023-06-05T14:08:02;3.45;;;2.22;;
3081;SDS011;1551;51.046;7.010;2023-06-05T14:10:51;4.10;;;2.30;;
3081;SDS011;1551;51.046;7.010;2023-06-05T14:13:40;4.70;;;2.30;;
3081;SDS011;1551;51.046;7.010;2023-06-05T14:16:30;3.67;;;2.40;;
3081;SDS011;1551;51.046;7.010;2023-06-05T14:19:19;3.97;;;2.20;;
3081;SDS011;1551;51.046;7.010;2023-06-05T14:22:08;3.10;;;1.80;;
3081;SDS011;1551;51.046;7.010;2023-06-05T14:24:58;2.92;;;1.88;;
3081;SDS011;1551;51.046;7.010;2023-06-05T14:27:47;3.43;;;2.10;;
3081;SDS011;1551;51.046;7.010;2023-06-05T14:30:35;3.58;;;1.92;;
3081;SDS011;1551;51.046;7.010;2023-06-05T14:33:24;3.60;;;1.90;;
3081;SDS011;1551;51.046;7.010;2023-06-05T14:36:13;3.00;;;2.28;;
3081;SDS011;1551;51.046;7.010;2023-06-05T14:39:04;3.65;;;1.95;;
3081;SDS011;1551;51.046;7.010;2023-06-05T14:41:52;3.33;;;2.00;;
3081;SDS011;1551;51.046;7.010;2023-06-05T14:44:41;4.50;;;1.90;;
3081;SDS011;1551;51.046;7.010;2023-06-05T14:47:30;7.97;;;2.08;;
3081;SDS011;1551;51.046;7.010;2023-06-05T14:50:19;3.50;;;2.10;;
3081;SDS011;1551;51.046;7.010;2023-06-05T14:53:08;3.80;;;1.90;;
3081;SDS011;1551;51.046;7.010;2023-06-05T14:55:57;3.50;;;2.17;;
3081;SDS011;1551;51.046;7.010;2023-06-05T14:58:46;3.40;;;1.83;;
3081;SDS011;1551;51.046;7.010;2023-06-05T15:01:35;4.50;;;2.13;;
3081;SDS011;1551;51.046;7.010;2023-06-05T15:04:25;4.97;;;2.03;;
3081;SDS011;1551;51.046;7.010;2023-06-05T15:07:18;5.57;;;2.30;;
3081;SDS011;1551;51.046;7.010;2023-06-05T15:10:08;2.97;;;2.00;;
3081;SDS011;1551;51.046;7.010;2023-06-05T15:13:01;3.22;;;2.20;;
3081;SDS011;1551;51.046;7.010;2023-06-05T15:15:50;6.60;;;2.20;;
3081;SDS011;1551;51.046;7.010;2023-06-05T15:18:39;5.07;;;1.83;;
3081;SDS011;1551;51.046;7.010;2023-06-05T15:21:27;4.00;;;2.70;;
3081;SDS011;1551;51.046;7.010;2023-06-05T15:24:16;3.95;;;2.40;;
3081;SDS011;1551;51.046;7.010;2023-06-05T15:27:06;3.88;;;2.20;;
3081;SDS011;1551;51.046;7.010;2023-06-05T15:29:56;3.90;;;2.50;;
3081;SDS011;1551;51.046;7.010;2023-06-05T15:32:45;3.90;;;2.10;;
3081;SDS011;1551;51.046;7.010;2023-06-05T15:35:34;4.30;;;1.80;;
3081;SDS011;1551;51.046;7.010;2023-06-05T15:38:23;3.30;;;2.30;;
3081;SDS011;1551;51.046;7.010;2023-06-05T15:41:12;4.07;;;1.95;;
3081;SDS011;1551;51.046;7.010;2023-06-05T15:44:01;3.30;;;1.98;;
3081;SDS011;1551;51.046;7.010;2023-06-05T15:46:50;4.22;;;1.95;;
3081;SDS011;1551;51.046;7.010;2023-06-05T15:49:39;6.28;;;2.10;;
3081;SDS011;1551;51.046;7.010;2023-06-05T15:52:29;3.25;;;1.80;;
3081;SDS011;1551;51.046;7.010;2023-06-05T15:55:19;3.35;;;2.05;;
3081;SDS011;1551;51.046;7.010;2023-06-05T15:58:09;3.90;;;2.10;;
3081;SDS011;1551;51.046;7.010;2023-06-05T16:00:59;3.88;;;2.35;;
3081;SDS011;1551;51.046;7.010;2023-06-05T16:03:48;3.93;;;1.83;;
3081;SDS011;1551;51.046;7.010;2023-06-05T16:06:37;3.50;;;1.90;;
3081;SDS011;1551;51.046;7.010;2023-06-05T16:09:26;5.13;;;2.72;;
3081;SDS011;1551;51.046;7.010;2023-06-05T16:12:15;3.80;;;2.20;;
3081;SDS011;1551;51.046;7.010;2023-06-05T16:15:04;4.53;;;2.00;;
3081;SDS011;1551;51.046;7.010;2023-06-05T16:17:53;3.60;;;2.30;;
3081;SDS011;1551;51.046;7.010;2023-06-05T16:20:42;5.00;;;2.03;;
3081;SDS011;1551;51.046;7.010;2023-06-05T16:23:31;5.30;;;2.50;;
3081;SDS011;1551;51.046;7.010;2023-06-05T16:26:20;4.43;;;2.30;;
3081;SDS011;1551;51.046;7.010;2023-06-05T16:29:10;4.57;;;1.90;;
3081;SDS011;1551;51.046;7.010;2023-06-05T16:31:59;3.60;;;2.10;;
3081;SDS011;1551;51.046;7.010;2023-06-05T16:34:48;3.03;;;1.83;;
3081;SDS011;1551;51.046;7.010;2023-06-05T16:37:37;5.40;;;2.38;;
3081;SDS011;1551;51.046;7.010;2023-06-05T16:40:26;3.87;;;2.30;;
3081;SDS011;1551;51.046;7.010;2023-06-05T16:43:15;3.35;;;2.20;;
3081;SDS011;1551;51.046;7.010;2023-06-05T16:46:04;3.00;;;1.90;;
3081;SDS011;1551;51.046;7.010;2023-06-05T16:48:53;3.60;;;2.20;;
3081;SDS011;1551;51.046;7.010;2023-06-05T16:51:42;3.20;;;2.28;;
3081;SDS011;1551;51.046;7.010;2023-06-05T16:54:31;5.97;;;2.20;;
3081;SDS011;1551;51.046;7.010;2023-06-05T16:57:20;5.78;;;2.45;;
3081;SDS011;1551;51.046;7.010;2023-06-05T17:00:09;3.40;;;2.33;;
3081;SDS011;1551;51.046;7.010;2023-06-05T17:02:59;3.85;;;2.30;;
3081;SDS011;1551;51.046;7.010;2023-06-05T17:05:48;3.60;;;2.20;;
3081;SDS011;1551;51.046;7.010;2023-06-05T17:08:39;3.30;;;2.30;;
3081;SDS011;1551;51.046;7.010;2023-06-05T17:11:28;3.30;;;2.30;;
3081;SDS011;1551;51.046;7.010;2023-06-05T17:14:18;3.38;;;2.20;;
3081;SDS011;1551;51.046;7.010;2023-06-05T17:17:08;4.97;;;2.55;;
3081;SDS011;1551;51.046;7.010;2023-06-05T17:19:57;4.15;;;2.30;;
3081;SDS011;1551;51.046;7.010;2023-06-05T17:22:46;3.30;;;2.60;;
3081;SDS011;1551;51.046;7.010;2023-06-05T17:25:35;4.50;;;2.40;;
3081;SDS011;1551;51.046;7.010;2023-06-05T17:28:24;5.40;;;2.58;;
3081;SDS011;1551;51.046;7.010;2023-06-05T17:31:13;4.30;;;2.47;;
3081;SDS011;1551;51.046;7.010;2023-06-05T17:34:02;4.90;;;2.40;;
3081;SDS011;1551;51.046;7.010;2023-06-05T17:36:51;3.58;;;2.40;;
3081;SDS011;1551;51.046;7.010;2023-06-05T17:39:40;4.50;;;2.75;;
3081;SDS011;1551;51.046;7.010;2023-06-05T17:42:29;4.30;;;2.55;;
3081;SDS011;1551;51.046;7.010;2023-06-05T17:45:18;4.45;;;2.33;;
3081;SDS011;1551;51.046;7.010;2023-06-05T17:48:08;3.20;;;2.30;;
3081;SDS011;1551;51.046;7.010;2023-06-05T17:50:57;3.75;;;2.60;;
3081;SDS011;1551;51.046;7.010;2023-06-05T17:53:46;3.50;;;2.38;;